Aeroporto :
LOGIN :

Iscrizione | Disclaimer

   EN    FR    IT 

 










Sommario :    VFR   VFR Marginale   IFR   IFR Intensivo   IFR Molto Intensivo
Visibilità : 
Base nubi : 
>= 8 km
>= 3000ft
5 / 8 km
1000 / 3000 ft
1500m / 5 km
500 / 1000 ft
800 / 1500m
200 / 500 ft
< 800m
< 200 ft
Simboli :   Temporali  Nebbia  Neve Forte  Precipitazioni Forti  Vento > 20 kt
SIGMETs :   Varie  Temporali  Ghiacco  Turbolenza  Onda orograficha  Ceneri Vulcaniche






- Altitudine del aeroporto : 52 ft
- Codice IATA : RNN


EKRN - Bornholm Ronne

ULTIMO METAR :
  • 071050Z AUTO 28013KT 9999 NCD 10/07 Q1029

METARs OBSOLETI :
  • 071020Z AUTO 29014KT 9999 NCD 10/07 Q1029
  • 070950Z AUTO 28014KT 9999 NCD 09/07 Q1028
  • 070920Z AUTO 30015KT 9000 NCD 09/07 Q1028
  • 070850Z AUTO 30017KT 9999 NCD 09/07 Q1027
  • 070820Z AUTO 29014KT 9999 NCD 10/07 Q1027

TAF TAF EKRN
Valido dal 07 a 09 ore il 07 a 18 ore UTC


070822Z 0709/0718 30015KT CAVOK



MetMap, La meteo Aeronautica in un colpo d'occhio ! - Copyright ORBIFLY Dicembre 2007 - Disclaimer

ORBIFLY MET'MAP TEAM :

Programmazione e sviluppo : Alexandra Zaïnal
Concezione : Baudouin d'Aumeries
Aiuto per la programmazione : Marc-Olivier Méhu
Supporto tecnico e logistico : Manuel Goepfert
Aiuto per la traduzione : Arnaldo La Scala

Contatto : metmap@orbifly.com




FONTI E CREDITI :

   NOAA